createdAt,value
2022-08-09T00:00:28.687Z,3.35
2022-08-09T00:02:55.513Z,3.55
2022-08-09T00:06:17.601Z,3.90
2022-08-09T00:08:13.151Z,3.47
2022-08-09T00:10:58.618Z,3.37
2022-08-09T00:13:25.349Z,4.05
2022-08-09T00:15:59.894Z,3.17
2022-08-09T00:18:34.916Z,3.00
2022-08-09T00:23:54.930Z,3.92
2022-08-09T00:26:17.746Z,3.67
2022-08-09T00:28:52.378Z,3.50
2022-08-09T00:32:00.055Z,3.33
2022-08-09T00:34:11.019Z,3.45
2022-08-09T00:36:38.181Z,4.20
2022-08-09T00:39:10.967Z,3.40
2022-08-09T00:44:17.149Z,2.92
2022-08-09T00:44:42.760Z,3.37
2022-08-09T00:47:24.710Z,3.20
2022-08-09T00:49:55.120Z,3.47
2022-08-09T00:52:30.615Z,3.42
2022-08-09T00:55:00.152Z,3.72
2022-08-09T00:57:34.435Z,4.12
2022-08-09T01:00:21.391Z,3.70
2022-08-09T01:03:17.100Z,3.92
2022-08-09T01:06:03.891Z,4.18
2022-08-09T01:09:25.558Z,3.85
2022-08-09T01:12:27.939Z,3.80
2022-08-09T01:15:16.656Z,3.65
2022-08-09T01:18:07.319Z,3.92
2022-08-09T01:21:12.476Z,4.72
2022-08-09T01:24:09.953Z,4.28
2022-08-09T01:26:57.833Z,4.20
2022-08-09T01:29:56.386Z,4.07
2022-08-09T01:32:45.469Z,4.80
2022-08-09T01:35:38.748Z,4.20
2022-08-09T01:38:31.608Z,4.10
2022-08-09T01:41:32.342Z,4.18
2022-08-09T01:44:02.387Z,4.37
2022-08-09T01:46:48.312Z,4.30
2022-08-09T01:49:17.325Z,4.30
2022-08-09T01:51:53.504Z,4.22
2022-08-09T01:54:39.659Z,4.10
2022-08-09T01:57:16.461Z,4.50
2022-08-09T01:59:51.928Z,4.10
2022-08-09T02:02:22.202Z,3.97
2022-08-09T02:04:50.845Z,3.75
2022-08-09T02:08:38.992Z,4.07
2022-08-09T02:10:14.222Z,4.47
2022-08-09T02:13:06.705Z,4.25
2022-08-09T02:15:50.628Z,4.00
2022-08-09T02:18:20.990Z,4.32
2022-08-09T02:20:55.165Z,4.37
2022-08-09T02:23:42.911Z,4.15
2022-08-09T02:26:24.974Z,4.12
2022-08-09T02:28:59.585Z,4.57
2022-08-09T02:31:44.845Z,4.10
2022-08-09T02:34:41.014Z,3.80
2022-08-09T02:37:08.032Z,3.90
2022-08-09T02:39:45.374Z,4.00
2022-08-09T02:42:24.877Z,3.72
2022-08-09T02:44:59.023Z,4.37
2022-08-09T02:47:57.654Z,3.47
2022-08-09T02:50:57.113Z,3.75
2022-08-09T02:53:31.531Z,4.10
2022-08-09T02:56:03.429Z,3.67
2022-08-09T02:58:37.530Z,4.10
2022-08-09T03:01:08.008Z,4.05
2022-08-09T03:04:18.134Z,3.72
2022-08-09T03:06:36.401Z,4.12
2022-08-09T03:09:04.215Z,3.92
2022-08-09T03:12:10.652Z,4.00
2022-08-09T03:14:26.535Z,4.05
2022-08-09T03:16:58.318Z,3.90
2022-08-09T03:19:59.116Z,3.65
2022-08-09T03:22:41.414Z,3.83
2022-08-09T03:25:59.303Z,3.65
2022-08-09T03:28:20.619Z,4.10
2022-08-09T03:30:49.078Z,3.80
2022-08-09T03:33:19.637Z,3.78
2022-08-09T03:36:15.586Z,3.92
2022-08-09T03:38:43.481Z,3.72
2022-08-09T03:41:18.605Z,4.75
2022-08-09T03:44:03.341Z,4.32
2022-08-09T03:46:34.943Z,4.43
2022-08-09T03:49:07.845Z,5.07
2022-08-09T03:51:54.205Z,4.97
2022-08-09T03:54:31.377Z,4.95
2022-08-09T03:57:22.995Z,4.72
2022-08-09T03:59:54.705Z,5.25
2022-08-09T04:02:27.984Z,4.95
2022-08-09T04:05:01.213Z,4.80
2022-08-09T04:07:47.608Z,4.62
2022-08-09T04:10:29.257Z,4.72
2022-08-09T04:13:01.061Z,4.72
2022-08-09T04:16:18.613Z,4.60
2022-08-09T04:18:19.228Z,3.92
2022-08-09T04:20:51.444Z,4.35
2022-08-09T04:23:24.661Z,4.18
2022-08-09T04:25:54.774Z,4.37
2022-08-09T04:28:30.763Z,4.47
2022-08-09T04:31:09.392Z,4.12
2022-08-09T04:33:52.497Z,4.43
2022-08-09T04:36:28.180Z,4.50
2022-08-09T04:38:57.286Z,4.90
2022-08-09T04:41:32.364Z,5.18
2022-08-09T04:44:07.274Z,4.68
2022-08-09T04:47:04.560Z,4.70
2022-08-09T04:49:57.019Z,4.97
2022-08-09T04:52:27.496Z,4.75
2022-08-09T04:54:59.581Z,4.50
2022-08-09T04:57:59.172Z,4.30
2022-08-09T05:00:14.291Z,4.85
2022-08-09T05:02:44.304Z,4.93
2022-08-09T05:05:32.205Z,4.85
2022-08-09T05:08:14.801Z,5.57
2022-08-09T05:10:42.136Z,5.05
2022-08-09T05:13:09.700Z,5.35
2022-08-09T05:15:39.250Z,5.40
2022-08-09T05:18:37.906Z,5.53
2022-08-09T05:21:24.703Z,5.03
2022-08-09T05:24:15.312Z,4.95
2022-08-09T05:26:47.671Z,4.93
2022-08-09T05:29:22.222Z,4.40
2022-08-09T05:31:56.695Z,4.75
2022-08-09T05:34:30.983Z,4.35
2022-08-09T05:37:06.047Z,4.45
2022-08-09T05:39:49.586Z,4.00
2022-08-09T05:42:21.198Z,4.07
2022-08-09T05:44:50.779Z,4.12
2022-08-09T05:47:22.715Z,4.10
2022-08-09T05:50:25.038Z,4.60
2022-08-09T05:52:38.471Z,4.37
2022-08-09T05:55:43.176Z,4.85
2022-08-09T05:59:17.173Z,4.57
2022-08-09T06:04:10.516Z,4.65
2022-08-09T06:06:40.753Z,4.60
2022-08-09T06:09:23.128Z,4.43
2022-08-09T06:11:57.978Z,4.68
2022-08-09T06:14:25.099Z,4.87
2022-08-09T06:16:52.676Z,5.03
2022-08-09T06:19:19.422Z,5.43
2022-08-09T06:21:51.626Z,4.95
2022-08-09T06:24:25.608Z,5.00
2022-08-09T06:26:52.942Z,4.97
2022-08-09T06:29:19.640Z,5.18
2022-08-09T06:32:09.237Z,4.62
2022-08-09T06:34:35.056Z,5.15
2022-08-09T06:37:03.614Z,5.25
2022-08-09T06:39:49.165Z,5.05
2022-08-09T06:42:30.618Z,4.95
2022-08-09T06:44:58.505Z,5.00
2022-08-09T06:47:25.686Z,4.87
2022-08-09T06:50:14.606Z,4.75
2022-08-09T06:52:48.452Z,4.40
2022-08-09T06:55:17.888Z,4.95
2022-08-09T06:58:02.585Z,5.05
2022-08-09T07:00:48.873Z,4.15
2022-08-09T07:03:27.950Z,5.55
2022-08-09T07:08:30.742Z,5.05
2022-08-09T07:10:59.625Z,5.20
2022-08-09T07:13:30.582Z,4.93
2022-08-09T07:16:43.303Z,4.28
2022-08-09T07:18:47.502Z,4.37
2022-08-09T07:21:17.138Z,5.32
2022-08-09T07:23:56.745Z,5.35
2022-08-09T07:26:26.482Z,4.25
2022-08-09T07:29:08.662Z,4.90
2022-08-09T07:31:44.926Z,4.32
2022-08-09T07:34:20.143Z,4.70
2022-08-09T07:36:49.457Z,4.43
2022-08-09T07:39:20.306Z,4.28
2022-08-09T07:42:03.880Z,4.10
2022-08-09T07:44:52.062Z,4.10
2022-08-09T07:47:19.304Z,3.90
2022-08-09T07:50:04.788Z,3.90
2022-08-09T07:52:35.814Z,4.05
2022-08-09T07:55:08.877Z,4.00
2022-08-09T07:57:36.547Z,4.25
2022-08-09T08:00:36.145Z,3.85
2022-08-09T08:03:08.308Z,3.65
2022-08-09T08:05:54.051Z,3.78
2022-08-09T08:09:02.145Z,3.78
2022-08-09T08:12:11.233Z,3.60
2022-08-09T08:13:57.282Z,3.70
2022-08-09T08:20:51.037Z,3.70
2022-08-09T08:23:18.708Z,4.22
2022-08-09T08:25:49.878Z,3.95
2022-08-09T08:28:26.199Z,3.85
2022-08-09T08:31:00.802Z,3.62
2022-08-09T08:33:40.731Z,4.65
2022-08-09T08:36:28.407Z,3.60
2022-08-09T08:38:56.695Z,4.20
2022-08-09T08:41:24.715Z,3.80
2022-08-09T08:44:09.572Z,3.90
2022-08-09T08:46:59.385Z,3.90
2022-08-09T08:49:38.927Z,3.92
2022-08-09T08:52:48.433Z,4.20
2022-08-09T08:55:05.563Z,3.53
2022-08-09T09:18:30.448Z,3.58
2022-08-09T09:20:57.763Z,3.55
2022-08-09T09:24:21.909Z,3.80
2022-08-09T09:26:59.043Z,3.75
2022-08-09T09:56:04.443Z,3.17
2022-08-09T10:41:56.599Z,2.92
2022-08-09T11:03:11.987Z,3.00
2022-08-09T11:04:29.840Z,3.17
2022-08-09T11:20:22.061Z,2.80
2022-08-09T11:25:47.765Z,3.00
2022-08-09T11:28:54.320Z,2.72
2022-08-09T11:31:49.153Z,2.67
2022-08-09T11:34:56.871Z,3.00
2022-08-09T11:37:31.237Z,2.70
2022-08-09T11:40:10.404Z,2.62
2022-08-09T11:42:50.022Z,2.92
2022-08-09T11:45:42.572Z,2.90
2022-08-09T11:48:19.450Z,3.20
2022-08-09T11:51:21.316Z,2.70
2022-08-09T11:53:59.947Z,3.20
2022-08-09T11:56:41.690Z,2.87
2022-08-09T11:59:30.402Z,2.90
2022-08-09T12:02:34.126Z,2.92
2022-08-09T12:04:47.345Z,3.25
2022-08-09T12:07:14.921Z,2.90
2022-08-09T12:09:50.561Z,2.78
2022-08-09T12:12:20.490Z,2.90
2022-08-09T12:15:08.081Z,2.55
2022-08-09T12:17:43.539Z,2.85
2022-08-09T12:20:16.547Z,3.00
2022-08-09T12:23:07.159Z,3.42
2022-08-09T12:25:37.592Z,3.10
2022-08-09T12:29:13.166Z,2.95
2022-08-09T12:31:58.087Z,3.20
2022-08-09T12:34:13.614Z,2.87
2022-08-09T12:37:29.028Z,2.83
2022-08-09T12:40:38.989Z,3.00
2022-08-09T12:44:05.583Z,3.17
2022-08-09T12:46:40.743Z,3.30
2022-08-09T12:49:08.861Z,3.20
2022-08-09T12:52:00.886Z,3.25
2022-08-09T12:54:22.495Z,3.17
2022-08-09T12:56:54.135Z,3.30
2022-08-09T12:59:24.983Z,3.25
2022-08-09T13:02:11.566Z,3.30
2022-08-09T13:05:00.587Z,3.17
2022-08-09T13:07:51.004Z,3.45
2022-08-09T13:10:18.345Z,3.15
2022-08-09T13:13:08.905Z,3.33
2022-08-09T13:15:35.996Z,3.12
2022-08-09T13:18:09.415Z,3.10
2022-08-09T13:21:04.045Z,3.25
2022-08-09T13:24:16.029Z,3.17
2022-08-09T13:26:49.951Z,3.58
2022-08-09T13:29:28.361Z,3.10
2022-08-09T13:32:13.913Z,3.60
2022-08-09T13:34:46.226Z,3.28
2022-08-09T13:37:24.808Z,3.60
2022-08-09T13:41:50.483Z,3.80
2022-08-09T13:48:10.618Z,3.20
2022-08-09T13:50:37.830Z,3.33
2022-08-09T13:53:05.375Z,3.42
2022-08-09T13:55:34.392Z,3.30
2022-08-09T14:00:50.587Z,3.80
2022-08-09T14:04:03.500Z,3.50
2022-08-09T14:06:19.426Z,3.40
2022-08-09T14:08:53.764Z,3.28
2022-08-09T14:11:20.830Z,3.28
2022-08-09T14:14:23.002Z,3.10
2022-08-09T14:19:15.530Z,3.20
2022-08-09T14:21:47.385Z,3.40
2022-08-09T14:24:18.790Z,3.45
2022-08-09T14:26:51.150Z,3.33
2022-08-09T14:29:25.772Z,3.33
2022-08-09T14:32:11.107Z,2.95
2022-08-09T14:34:40.949Z,3.60
2022-08-09T14:37:08.523Z,3.47
2022-08-09T14:39:47.913Z,3.20
2022-08-09T14:42:32.158Z,3.05
2022-08-09T14:46:51.435Z,2.75
2022-08-09T14:47:57.966Z,3.17
2022-08-09T14:50:31.130Z,3.35
2022-08-09T14:52:59.762Z,3.72
2022-08-09T14:55:32.394Z,3.50
2022-08-09T14:58:05.002Z,2.97
2022-08-09T15:00:35.202Z,3.20
2022-08-09T15:03:06.114Z,3.35
2022-08-09T15:05:34.293Z,3.10
2022-08-09T15:08:04.461Z,3.15
2022-08-09T15:10:32.711Z,3.67
2022-08-09T15:13:02.968Z,3.00
2022-08-09T15:15:30.620Z,3.25
2022-08-09T15:18:01.509Z,3.00
2022-08-09T15:22:01.085Z,3.00
2022-08-09T15:28:28.463Z,3.10
2022-08-09T15:31:13.215Z,2.92
2022-08-09T15:34:17.282Z,3.42
2022-08-09T15:36:30.424Z,3.17
2022-08-09T15:39:00.022Z,3.17
2022-08-09T15:41:31.366Z,3.25
2022-08-09T15:46:32.900Z,3.58
2022-08-09T15:49:22.975Z,3.37
2022-08-09T15:54:31.380Z,2.90
2022-08-09T15:59:36.699Z,3.30
2022-08-09T16:02:04.447Z,2.97
2022-08-09T16:04:34.465Z,2.87
2022-08-09T16:07:04.191Z,3.35
2022-08-09T16:09:32.703Z,3.20
2022-08-09T16:12:17.618Z,2.90
2022-08-09T16:14:44.635Z,3.25
2022-08-09T16:17:12.755Z,3.10
2022-08-09T16:19:49.459Z,3.03
2022-08-09T16:22:30.500Z,3.22
2022-08-09T16:24:59.529Z,2.92
2022-08-09T16:27:29.953Z,2.87
2022-08-09T16:30:00.739Z,2.95
2022-08-09T16:33:11.590Z,3.28
2022-08-09T16:38:19.912Z,2.83
2022-08-09T16:40:49.363Z,3.22
2022-08-09T16:43:18.361Z,3.37
2022-08-09T16:45:53.361Z,3.28
2022-08-09T16:48:59.960Z,3.20
2022-08-09T16:52:06.445Z,3.15
2022-08-09T16:54:55.629Z,3.53
2022-08-09T16:57:22.437Z,2.97
2022-08-09T16:59:57.815Z,3.40
2022-08-09T17:02:25.483Z,3.15
2022-08-09T17:04:52.708Z,2.87
2022-08-09T17:08:45.395Z,3.08
2022-08-09T17:10:09.174Z,2.92
2022-08-09T17:12:37.848Z,3.03
2022-08-09T17:15:31.159Z,3.12
2022-08-09T17:17:51.781Z,3.00
2022-08-09T17:20:35.749Z,3.30
2022-08-09T17:24:21.101Z,2.78
2022-08-09T17:26:17.548Z,3.80
2022-08-09T17:28:56.132Z,3.65
2022-08-09T17:31:23.985Z,5.37
2022-08-09T17:33:56.533Z,5.95
2022-08-09T17:36:25.963Z,4.90
2022-08-09T17:50:56.324Z,3.50
2022-08-09T17:53:26.140Z,3.10
2022-08-09T17:55:57.629Z,3.85
2022-08-09T17:58:27.771Z,3.62
2022-08-09T18:00:58.569Z,3.35
2022-08-09T18:03:31.708Z,3.30
2022-08-09T18:06:00.869Z,3.28
2022-08-09T18:08:28.130Z,3.50
2022-08-09T18:11:02.107Z,3.45
2022-08-09T18:13:43.019Z,3.50
2022-08-09T18:16:30.234Z,3.35
2022-08-09T18:18:59.337Z,3.03
2022-08-09T18:21:31.848Z,3.40
2022-08-09T18:24:14.254Z,3.30
2022-08-09T18:26:46.412Z,3.60
2022-08-09T18:30:42.269Z,3.03
2022-08-09T18:32:05.073Z,2.70
2022-08-09T18:34:35.149Z,2.95
2022-08-09T18:37:10.218Z,2.95
2022-08-09T18:39:52.825Z,2.92
2022-08-09T18:42:19.633Z,2.47
2022-08-09T18:44:54.992Z,2.78
2022-08-09T18:47:24.123Z,2.80
2022-08-09T18:49:54.393Z,3.22
2022-08-09T18:52:24.912Z,3.10
2022-08-09T18:55:01.492Z,2.25
2022-08-09T18:57:38.673Z,2.20
2022-08-09T19:00:16.408Z,2.40
2022-08-09T19:02:50.842Z,2.33
2022-08-09T19:05:28.696Z,1.83
2022-08-09T19:08:10.590Z,1.65
2022-08-09T19:10:40.815Z,1.50
2022-08-09T19:13:23.539Z,1.77
2022-08-09T19:15:58.620Z,1.60
2022-08-09T19:18:32.957Z,1.55
2022-08-09T19:21:01.181Z,1.65
2022-08-09T19:24:35.417Z,1.80
2022-08-09T19:26:16.086Z,1.52
2022-08-09T19:28:48.990Z,1.55
2022-08-09T19:31:16.844Z,1.70
2022-08-09T19:33:43.853Z,1.40
2022-08-09T19:36:13.265Z,1.45
2022-08-09T19:38:40.134Z,1.42
2022-08-09T19:41:06.870Z,1.30
2022-08-09T19:44:01.642Z,1.30
2022-08-09T19:46:35.384Z,1.50
2022-08-09T19:50:09.150Z,1.48
2022-08-09T19:51:57.024Z,1.40
2022-08-09T19:54:27.496Z,1.52
2022-08-09T19:57:03.515Z,1.35
2022-08-09T19:59:58.827Z,1.40
2022-08-09T20:04:08.157Z,1.45
2022-08-09T20:05:10.348Z,1.52
2022-08-09T20:07:59.181Z,1.20
2022-08-09T20:10:34.769Z,1.40
2022-08-09T20:13:05.232Z,1.20
2022-08-09T20:16:33.142Z,1.00
2022-08-09T20:18:19.689Z,1.48
2022-08-09T20:20:47.201Z,1.37
2022-08-09T20:23:19.452Z,1.02
2022-08-09T20:25:51.910Z,1.00
2022-08-09T20:28:34.342Z,1.35
2022-08-09T20:31:02.846Z,1.20
2022-08-09T20:33:41.347Z,1.37
2022-08-09T20:36:12.333Z,1.55
2022-08-09T20:41:35.530Z,1.10
2022-08-09T20:44:10.559Z,1.55
2022-08-09T20:46:42.797Z,1.00
2022-08-09T20:49:16.166Z,1.02
2022-08-09T20:51:44.177Z,1.20
2022-08-09T20:54:12.504Z,1.05
2022-08-09T20:56:39.500Z,1.52
2022-08-09T20:59:07.738Z,1.00
2022-08-09T21:01:50.302Z,0.98
2022-08-09T21:05:54.350Z,1.20
2022-08-09T21:07:12.375Z,1.17
2022-08-09T21:09:45.577Z,1.00
2022-08-09T21:14:48.397Z,1.10
2022-08-09T21:18:22.214Z,1.10
2022-08-09T21:20:05.217Z,1.10
2022-08-09T21:22:52.647Z,1.10
2022-08-09T21:25:39.947Z,1.00
2022-08-09T21:28:11.827Z,1.00
2022-08-09T21:30:40.320Z,1.02
2022-08-09T21:33:08.094Z,1.20
2022-08-09T21:35:39.479Z,0.90
2022-08-09T21:38:09.356Z,1.30
2022-08-09T21:40:37.194Z,0.90
2022-08-09T21:43:06.182Z,1.10
2022-08-09T21:45:38.787Z,0.95
2022-08-09T21:48:07.104Z,1.10
2022-08-09T21:50:36.031Z,1.12
2022-08-09T21:53:23.815Z,1.08
2022-08-09T21:55:54.469Z,0.93
2022-08-09T21:58:21.090Z,1.00
2022-08-09T22:00:55.924Z,1.15
2022-08-09T22:03:25.277Z,1.30
2022-08-09T22:05:53.231Z,1.10
2022-08-09T22:08:24.489Z,1.00
2022-08-09T22:11:49.452Z,1.05
2022-08-09T22:13:43.389Z,1.00
2022-08-09T22:16:10.976Z,1.00
2022-08-09T22:18:53.614Z,1.08
2022-08-09T22:21:24.242Z,0.80
2022-08-09T22:23:59.386Z,1.08
2022-08-09T22:26:35.192Z,0.95
2022-08-09T22:29:07.452Z,0.90
2022-08-09T22:31:36.506Z,1.20
2022-08-09T22:34:03.645Z,1.10
2022-08-09T22:36:45.708Z,1.00
2022-08-09T22:39:46.876Z,1.00
2022-08-09T22:42:06.081Z,1.25
2022-08-09T22:44:48.411Z,0.80
2022-08-09T22:48:13.476Z,1.00
2022-08-09T22:50:13.511Z,1.00
2022-08-09T22:52:41.255Z,1.10
2022-08-09T22:55:08.569Z,0.95
2022-08-09T22:57:59.718Z,1.05
2022-08-09T23:00:29.242Z,0.95
2022-08-09T23:02:56.415Z,2.00
2022-08-09T23:05:23.117Z,1.15
2022-08-09T23:08:21.776Z,1.20
2022-08-09T23:10:50.050Z,1.00
2022-08-09T23:13:16.651Z,1.15
2022-08-09T23:15:43.280Z,1.00
2022-08-09T23:18:29.122Z,1.52
2022-08-09T23:20:55.975Z,1.00
2022-08-09T23:23:22.576Z,1.10
2022-08-09T23:25:49.459Z,1.10
2022-08-09T23:28:16.311Z,1.17
2022-08-09T23:30:51.402Z,1.00
2022-08-09T23:33:20.242Z,1.00
2022-08-09T23:36:04.637Z,1.10
2022-08-09T23:38:33.358Z,1.08
2022-08-09T23:40:59.952Z,1.20
2022-08-09T23:43:26.552Z,1.15
2022-08-09T23:45:53.214Z,1.20
2022-08-09T23:48:19.899Z,1.25
2022-08-09T23:50:46.597Z,1.05
2022-08-09T23:53:13.392Z,1.20
2022-08-09T23:55:48.351Z,1.30
2022-08-09T23:58:26.102Z,1.10
